LEMH/MAH METAR and TAF weather

Enter ICAO airport designator
Station Type Date Time Source
LEMH METAR 2019/12/14 17:00 UTC NOAA

LEMH 141700Z 24004KT 210V290 CAVOK 14/11 Q1015


Station Type Date Time Source
LEMH Decoded METAR 2019/12/14 17:00 UTC NOAA

Menorca / Mahon, Spain (LEMH) 39-52N 004-14E 82M
Dec 14, 2019 - 12:00 PM EST / 2019.12.14 1700 UTC
Wind: from the WSW (240 degrees) at 5 MPH (4 KT) (direction variable):0
Visibility: greater than 7 mile(s):0
Temperature: 57 F (14 C)
Dew Point: 51 F (11 C)
Relative Humidity: 82%
Pressure (altimeter): 29.97 in. Hg (1015 hPa)
ob: LEMH 141700Z 24004KT 210V290 CAVOK 14/11 Q1015
cycle: 17

Station Type Date Time Source
LEMH TAF 2019/12/14 15:27 UTC NOAA

TAF LEMH 141400Z 1415/1515 27010KT 9999 FEW020 TX17/1512Z TN11/1506Z
BECMG 1418/1420 24010KT
TEMPO 1423/1501 24015KT PROB30
TEMPO 1502/1507 4000 BR BKN010

Example: see airport list